createdAt,value
2017-11-04T00:00:07.717Z,40.40
2017-11-04T00:01:14.573Z,45.70
2017-11-04T00:02:21.365Z,37.80
2017-11-04T00:03:28.206Z,43.50
2017-11-04T00:04:34.970Z,41.30
2017-11-04T00:05:41.753Z,39.70
2017-11-04T00:06:48.585Z,41.00
2017-11-04T00:07:55.353Z,44.10
2017-11-04T00:09:02.397Z,43.60
2017-11-04T00:10:09.193Z,45.50
2017-11-04T00:11:16.105Z,42.30
2017-11-04T00:12:22.868Z,42.10
2017-11-04T00:13:29.659Z,41.20
2017-11-04T00:14:36.385Z,38.50
2017-11-04T00:15:43.149Z,37.40
2017-11-04T00:16:50.104Z,37.70
2017-11-04T00:17:56.871Z,40.00
2017-11-04T00:19:03.664Z,37.30
2017-11-04T00:20:10.455Z,35.40
2017-11-04T00:21:17.280Z,33.50
2017-11-04T00:22:24.029Z,34.60
2017-11-04T00:23:30.849Z,38.40
2017-11-04T00:24:37.585Z,30.90
2017-11-04T00:25:44.404Z,37.10
2017-11-04T00:26:51.452Z,37.80
2017-11-04T00:27:58.267Z,34.40
2017-11-04T00:29:05.037Z,35.70
2017-11-04T00:30:11.814Z,36.20
2017-11-04T00:31:18.644Z,34.00
2017-11-04T00:32:25.408Z,35.60
2017-11-04T00:33:32.173Z,37.20
2017-11-04T00:34:39.011Z,32.90
2017-11-04T00:35:46.148Z,32.20
2017-11-04T00:36:52.868Z,34.20
2017-11-04T00:37:59.661Z,33.30
2017-11-04T00:39:06.405Z,33.20
2017-11-04T00:40:13.164Z,32.10
2017-11-04T00:41:19.936Z,31.40
2017-11-04T00:42:26.713Z,30.30
2017-11-04T00:43:33.505Z,34.80
2017-11-04T00:44:40.267Z,33.20
2017-11-04T00:45:47.146Z,30.40
2017-11-04T00:46:53.908Z,34.50
2017-11-04T00:48:00.710Z,31.50
2017-11-04T00:49:07.507Z,33.20
2017-11-04T00:50:14.333Z,32.70
2017-11-04T00:51:21.112Z,30.70
2017-11-04T00:52:27.903Z,33.70
2017-11-04T00:53:34.708Z,32.10
2017-11-04T00:54:41.466Z,33.40
2017-11-04T00:55:48.183Z,33.90
2017-11-04T00:56:54.905Z,30.70
2017-11-04T00:58:01.728Z,30.70
2017-11-04T00:59:08.477Z,30.50
2017-11-04T01:00:15.216Z,30.40
2017-11-04T01:01:21.983Z,29.70
2017-11-04T01:02:28.736Z,29.70
2017-11-04T01:03:35.516Z,29.60
2017-11-04T01:04:42.243Z,33.20
2017-11-04T01:05:49.012Z,29.30
2017-11-04T01:06:55.757Z,31.10
2017-11-04T01:08:02.528Z,30.50
2017-11-04T01:09:09.267Z,30.30
2017-11-04T01:10:16.013Z,28.70
2017-11-04T01:11:22.772Z,27.00
2017-11-04T01:12:29.580Z,29.60
2017-11-04T01:13:36.372Z,27.50
2017-11-04T01:14:43.137Z,28.40
2017-11-04T01:15:49.866Z,26.10
2017-11-04T01:16:56.589Z,31.00
2017-11-04T01:18:03.335Z,29.00
2017-11-04T01:19:10.169Z,28.40
2017-11-04T01:20:16.908Z,31.00
2017-11-04T01:21:23.680Z,29.10
2017-11-04T01:22:30.428Z,27.50
2017-11-04T01:23:37.226Z,24.90
2017-11-04T01:24:43.972Z,28.30
2017-11-04T01:25:50.710Z,26.90
2017-11-04T01:26:57.421Z,29.50
2017-11-04T01:28:04.172Z,29.70
2017-11-04T01:29:10.933Z,28.40
2017-11-04T01:30:17.788Z,26.80
2017-11-04T01:31:24.738Z,22.70
2017-11-04T01:32:31.472Z,24.90
2017-11-04T01:33:38.285Z,25.80
2017-11-04T01:34:45.042Z,26.70
2017-11-04T01:35:51.797Z,25.70
2017-11-04T01:36:58.520Z,26.10
2017-11-04T01:38:05.316Z,26.40
2017-11-04T01:39:12.087Z,26.60
2017-11-04T01:40:18.844Z,24.60
2017-11-04T01:41:25.568Z,26.60
2017-11-04T01:42:32.320Z,32.00
2017-11-04T01:43:39.073Z,29.20
2017-11-04T01:44:45.822Z,28.10
2017-11-04T01:45:52.580Z,27.80
2017-11-04T01:46:59.344Z,29.40
2017-11-04T01:48:06.114Z,24.90
2017-11-04T01:49:12.926Z,27.10
2017-11-04T01:50:19.743Z,26.70
2017-11-04T01:51:26.581Z,25.00
2017-11-04T01:52:33.320Z,32.60
2017-11-04T01:53:40.137Z,26.80
2017-11-04T01:54:46.929Z,25.60
2017-11-04T01:55:53.753Z,26.40
2017-11-04T01:57:00.509Z,25.80
2017-11-04T01:58:07.240Z,32.90
2017-11-04T01:59:13.984Z,29.90
2017-11-04T02:00:20.723Z,28.50
2017-11-04T02:01:27.524Z,29.30
2017-11-04T02:02:34.294Z,30.10
2017-11-04T02:03:41.029Z,29.10
2017-11-04T02:04:47.757Z,28.20
2017-11-04T02:05:54.514Z,32.50
2017-11-04T02:07:01.313Z,26.00
2017-11-04T02:08:08.237Z,32.00
2017-11-04T02:09:15.013Z,27.20
2017-11-04T02:10:21.802Z,27.80
2017-11-04T02:11:32.597Z,29.00
2017-11-04T02:12:35.351Z,29.90
2017-11-04T02:13:42.081Z,28.20
2017-11-04T02:14:48.829Z,30.00
2017-11-04T02:15:55.617Z,28.00
2017-11-04T02:17:02.377Z,28.40
2017-11-04T02:18:09.158Z,29.60
2017-11-04T02:19:15.979Z,28.70
2017-11-04T02:20:22.780Z,25.20
2017-11-04T02:21:29.520Z,28.50
2017-11-04T02:22:36.372Z,30.30
2017-11-04T02:23:43.185Z,27.80
2017-11-04T02:24:49.996Z,30.90
2017-11-04T02:25:56.755Z,26.90
2017-11-04T02:27:03.488Z,27.30
2017-11-04T02:28:10.361Z,27.80
2017-11-04T02:29:17.122Z,28.70
2017-11-04T02:30:23.858Z,27.20
2017-11-04T02:31:30.616Z,27.50
2017-11-04T02:32:37.558Z,29.40
2017-11-04T02:33:44.283Z,27.50
2017-11-04T02:34:51.030Z,26.80
2017-11-04T02:35:57.813Z,30.30
2017-11-04T02:37:04.539Z,26.80
2017-11-04T02:38:11.269Z,25.50
2017-11-04T02:39:18.011Z,28.90
2017-11-04T02:40:24.793Z,26.20
2017-11-04T02:41:31.518Z,29.50
2017-11-04T02:42:38.312Z,30.00
2017-11-04T02:43:45.033Z,27.70
2017-11-04T02:44:51.800Z,25.90
2017-11-04T02:45:58.501Z,26.10
2017-11-04T02:47:05.261Z,27.60
2017-11-04T02:48:12.044Z,22.80
2017-11-04T02:49:23.845Z,25.30
2017-11-04T02:50:30.630Z,25.50
2017-11-04T02:51:37.368Z,25.90
2017-11-04T02:52:39.184Z,24.10
2017-11-04T02:53:45.973Z,29.70
2017-11-04T02:54:52.821Z,28.20
2017-11-04T02:55:59.585Z,28.90
2017-11-04T02:57:06.386Z,28.50
2017-11-04T02:58:13.162Z,28.60
2017-11-04T02:59:19.957Z,27.20
2017-11-04T03:00:26.749Z,26.70
2017-11-04T03:01:33.512Z,28.00
2017-11-04T03:02:40.331Z,28.50
2017-11-04T03:03:47.168Z,28.50
2017-11-04T03:04:53.937Z,29.90
2017-11-04T03:06:00.737Z,27.20
2017-11-04T03:07:07.549Z,26.50
2017-11-04T03:08:14.320Z,30.10
2017-11-04T03:09:21.092Z,30.00
2017-11-04T03:10:27.861Z,29.50
2017-11-04T03:11:34.646Z,28.70
2017-11-04T03:12:41.460Z,27.60
2017-11-04T03:13:48.230Z,28.70
2017-11-04T03:14:54.981Z,26.70
2017-11-04T03:16:01.847Z,26.20
2017-11-04T03:17:08.681Z,27.60
2017-11-04T03:18:15.484Z,27.40
2017-11-04T03:19:22.230Z,31.30
2017-11-04T03:20:29.021Z,26.70
2017-11-04T03:21:35.814Z,30.00
2017-11-04T03:22:42.640Z,24.20
2017-11-04T03:23:49.521Z,25.10
2017-11-04T03:24:56.341Z,25.70
2017-11-04T03:26:03.194Z,29.50
2017-11-04T03:27:10.084Z,25.80
2017-11-04T03:28:16.853Z,26.60
2017-11-04T03:29:23.670Z,28.60
2017-11-04T03:30:30.436Z,27.80
2017-11-04T03:31:37.208Z,23.80
2017-11-04T03:32:43.969Z,24.20
2017-11-04T03:33:50.937Z,27.00
2017-11-04T03:34:57.824Z,25.30
2017-11-04T03:36:04.593Z,25.90
2017-11-04T03:37:11.373Z,27.50
2017-11-04T03:38:18.179Z,25.70
2017-11-04T03:39:25.013Z,25.70
2017-11-04T03:40:31.888Z,28.00
2017-11-04T03:41:38.714Z,27.60
2017-11-04T03:42:45.484Z,23.90
2017-11-04T03:43:52.256Z,26.90
2017-11-04T03:44:59.173Z,25.50
2017-11-04T03:46:05.964Z,27.30
2017-11-04T03:47:12.696Z,24.10
2017-11-04T03:48:19.469Z,25.80
2017-11-04T03:49:26.164Z,24.90
2017-11-04T03:50:32.922Z,27.70
2017-11-04T03:51:39.664Z,27.20
2017-11-04T03:52:46.349Z,25.30
2017-11-04T03:53:53.081Z,28.60
2017-11-04T03:54:59.820Z,27.60
2017-11-04T03:56:06.543Z,29.90
2017-11-04T03:57:13.285Z,32.20
2017-11-04T03:58:20.081Z,26.50
2017-11-04T03:59:26.810Z,28.00
2017-11-04T04:00:33.578Z,28.50
2017-11-04T04:01:40.277Z,27.80
2017-11-04T04:02:47.076Z,30.10
2017-11-04T04:03:53.801Z,28.90
2017-11-04T04:05:00.509Z,26.90
2017-11-04T04:06:07.256Z,30.00
2017-11-04T04:07:13.965Z,22.60
2017-11-04T04:08:20.694Z,24.60
2017-11-04T04:09:27.418Z,27.90
2017-11-04T04:10:34.166Z,25.60
2017-11-04T04:11:40.932Z,26.20
2017-11-04T04:12:47.700Z,24.60
2017-11-04T04:13:54.407Z,29.90
2017-11-04T04:15:01.160Z,27.60
2017-11-04T04:16:08.251Z,25.80
2017-11-04T04:17:14.970Z,29.70
2017-11-04T04:18:21.678Z,27.80
2017-11-04T04:19:28.420Z,29.90
2017-11-04T04:20:35.144Z,32.00
2017-11-04T04:21:41.905Z,27.80
2017-11-04T04:22:48.628Z,28.10
2017-11-04T04:23:55.457Z,26.10
2017-11-04T04:25:02.196Z,29.10
2017-11-04T04:26:08.921Z,27.40
2017-11-04T04:27:15.660Z,29.30
2017-11-04T04:28:22.440Z,29.00
2017-11-04T04:29:29.186Z,24.60
2017-11-04T04:30:35.953Z,25.60
2017-11-04T04:31:42.702Z,30.90
2017-11-04T04:32:49.553Z,28.90
2017-11-04T04:33:56.308Z,31.30
2017-11-04T04:35:03.005Z,28.00
2017-11-04T04:36:09.735Z,28.90
2017-11-04T04:37:16.738Z,30.60
2017-11-04T04:38:23.153Z,30.70
2017-11-04T04:39:29.949Z,29.20
2017-11-04T04:40:36.704Z,31.20
2017-11-04T04:41:43.537Z,28.10
2017-11-04T04:42:50.331Z,27.70
2017-11-04T04:43:57.148Z,24.60
2017-11-04T04:45:03.889Z,28.20
2017-11-04T04:46:11.679Z,31.90
2017-11-04T04:47:17.497Z,30.30
2017-11-04T04:48:24.296Z,25.30
2017-11-04T04:49:31.075Z,26.10
2017-11-04T04:50:37.893Z,28.40
2017-11-04T04:51:44.658Z,26.40
2017-11-04T04:52:51.401Z,26.90
2017-11-04T04:53:58.136Z,26.30
2017-11-04T04:55:05.123Z,26.80
2017-11-04T04:56:11.874Z,25.00
2017-11-04T04:57:18.644Z,27.20
2017-11-04T04:58:25.398Z,25.40
2017-11-04T04:59:32.186Z,26.40
2017-11-04T05:00:38.943Z,26.90
2017-11-04T05:01:45.679Z,29.40
2017-11-04T05:02:52.477Z,29.00
2017-11-04T05:03:59.221Z,26.10
2017-11-04T05:05:05.974Z,28.70
2017-11-04T05:06:12.714Z,27.40
2017-11-04T05:07:19.453Z,29.10
2017-11-04T05:08:26.216Z,26.80
2017-11-04T05:09:32.969Z,27.50
2017-11-04T05:10:39.753Z,29.40
2017-11-04T05:11:46.492Z,31.40
2017-11-04T05:12:53.240Z,27.10
2017-11-04T05:13:59.987Z,28.50
2017-11-04T05:15:06.702Z,27.00
2017-11-04T05:16:13.469Z,23.50
2017-11-04T05:17:20.193Z,28.10
2017-11-04T05:18:26.957Z,28.90
2017-11-04T05:19:34.004Z,30.80
2017-11-04T05:20:40.728Z,27.70
2017-11-04T05:21:47.445Z,28.30
2017-11-04T05:22:54.184Z,27.40
2017-11-04T05:24:00.926Z,28.80
2017-11-04T05:25:07.658Z,30.40
2017-11-04T05:26:14.430Z,28.80
2017-11-04T05:27:21.185Z,28.10
2017-11-04T05:28:28.065Z,28.90
2017-11-04T05:29:34.876Z,28.40
2017-11-04T05:30:41.726Z,28.50
2017-11-04T05:31:48.574Z,30.30
2017-11-04T05:32:55.343Z,26.20
2017-11-04T05:34:02.133Z,30.30
2017-11-04T05:35:08.933Z,29.10
2017-11-04T05:36:15.641Z,25.10
2017-11-04T05:37:22.376Z,27.40
2017-11-04T05:38:29.202Z,30.00
2017-11-04T05:39:35.933Z,27.20
2017-11-04T05:40:42.656Z,29.50
2017-11-04T05:41:49.368Z,28.00
2017-11-04T05:42:56.113Z,28.90
2017-11-04T05:44:02.872Z,27.00
2017-11-04T05:45:09.661Z,27.80
2017-11-04T05:46:16.408Z,28.60
2017-11-04T05:47:23.148Z,25.90
2017-11-04T05:48:29.937Z,28.60
2017-11-04T05:49:36.813Z,28.80
2017-11-04T05:50:43.538Z,29.40
2017-11-04T05:51:50.293Z,26.00
2017-11-04T05:52:57.028Z,28.40
2017-11-04T05:54:03.802Z,32.60
2017-11-04T05:55:10.598Z,28.80
2017-11-04T05:56:17.369Z,28.90
2017-11-04T05:57:24.080Z,29.20
2017-11-04T05:58:30.787Z,29.40
2017-11-04T05:59:37.529Z,33.70
2017-11-04T06:00:44.328Z,32.10
2017-11-04T06:01:51.132Z,31.20
2017-11-04T06:02:57.917Z,30.60
2017-11-04T06:04:04.678Z,29.70
2017-11-04T06:05:11.467Z,29.50
2017-11-04T06:06:18.341Z,28.80
2017-11-04T06:07:25.124Z,29.20
2017-11-04T06:08:31.973Z,29.10
2017-11-04T06:09:38.741Z,26.90
2017-11-04T06:10:45.522Z,27.90
2017-11-04T06:11:52.252Z,27.70
2017-11-04T06:12:59.020Z,28.40
2017-11-04T06:14:05.746Z,29.00
2017-11-04T06:15:12.577Z,28.00
2017-11-04T06:16:19.364Z,27.20
2017-11-04T06:17:26.100Z,28.80
2017-11-04T06:18:32.857Z,30.70
2017-11-04T06:19:39.590Z,29.60
2017-11-04T06:20:46.333Z,27.70
2017-11-04T06:21:53.180Z,27.80
2017-11-04T06:22:59.972Z,28.50
2017-11-04T06:24:06.763Z,27.20
2017-11-04T06:25:13.522Z,24.40
2017-11-04T06:26:20.292Z,29.00
2017-11-04T06:27:27.030Z,31.90
2017-11-04T06:28:33.794Z,29.10
2017-11-04T06:29:40.597Z,27.60
2017-11-04T06:30:47.365Z,28.10
2017-11-04T06:31:54.105Z,29.90
2017-11-04T06:33:00.838Z,28.10
2017-11-04T06:34:07.635Z,27.80
2017-11-04T06:35:14.409Z,34.70
2017-11-04T06:36:21.202Z,31.10
2017-11-04T06:37:27.929Z,29.60
2017-11-04T06:38:34.716Z,30.40
2017-11-04T06:39:41.460Z,25.50
2017-11-04T06:40:48.209Z,29.90
2017-11-04T06:41:55.083Z,31.80
2017-11-04T06:43:01.838Z,29.50
2017-11-04T06:44:08.667Z,28.80
2017-11-04T06:45:15.421Z,26.40
2017-11-04T06:46:22.165Z,26.20
2017-11-04T06:47:28.897Z,26.40
2017-11-04T06:48:35.701Z,30.80
2017-11-04T06:49:42.415Z,35.10
2017-11-04T06:50:49.174Z,30.40
2017-11-04T06:51:55.961Z,32.90
2017-11-04T06:53:02.696Z,32.20
2017-11-04T06:54:09.439Z,29.70
2017-11-04T06:55:16.157Z,31.30
2017-11-04T06:56:22.854Z,31.30
2017-11-04T06:57:29.594Z,31.70
2017-11-04T06:58:36.365Z,32.60
2017-11-04T06:59:43.089Z,33.60
2017-11-04T07:00:49.857Z,31.00
2017-11-04T07:01:56.720Z,33.70
2017-11-04T07:03:03.442Z,30.00
2017-11-04T07:04:10.166Z,27.70
2017-11-04T07:05:16.896Z,29.40
2017-11-04T07:06:23.634Z,31.20
2017-11-04T07:07:30.360Z,33.20
2017-11-04T07:08:37.092Z,32.20
2017-11-04T07:09:43.820Z,28.10
2017-11-04T07:10:51.080Z,30.60
2017-11-04T07:11:57.293Z,31.20
2017-11-04T07:13:04.037Z,34.10
2017-11-04T07:14:10.779Z,26.80
2017-11-04T07:15:17.548Z,27.80
2017-11-04T07:16:24.313Z,30.40
2017-11-04T07:17:31.045Z,30.10
2017-11-04T07:18:37.766Z,33.50
2017-11-04T07:19:44.486Z,30.60
2017-11-04T07:20:51.261Z,34.60
2017-11-04T07:21:58.081Z,31.60
2017-11-04T07:23:04.836Z,32.40
2017-11-04T07:24:11.682Z,29.40
2017-11-04T07:25:18.429Z,30.40
2017-11-04T07:26:25.165Z,31.70
2017-11-04T07:27:32.493Z,31.80
2017-11-04T07:28:39.253Z,34.50
2017-11-04T07:29:46.059Z,34.20
2017-11-04T07:30:52.744Z,35.30
2017-11-04T07:31:59.563Z,37.00
2017-11-04T07:33:06.302Z,35.10
2017-11-04T07:34:13.030Z,37.40
2017-11-04T07:35:19.815Z,33.10
2017-11-04T07:36:26.589Z,37.10
2017-11-04T07:37:33.336Z,40.00
2017-11-04T07:38:40.073Z,35.40
2017-11-04T07:39:46.851Z,40.20
2017-11-04T07:40:53.653Z,38.90
2017-11-04T07:42:00.409Z,38.70
2017-11-04T07:43:07.506Z,38.30
2017-11-04T07:44:14.388Z,38.50
2017-11-04T07:45:21.144Z,38.70
2017-11-04T07:46:27.930Z,39.10
2017-11-04T07:47:34.808Z,35.70
2017-11-04T07:48:41.746Z,33.20
2017-11-04T07:49:48.505Z,36.80
2017-11-04T07:50:55.382Z,38.60
2017-11-04T07:52:02.280Z,43.10
2017-11-04T07:53:09.085Z,46.50
2017-11-04T07:54:15.905Z,47.50
2017-11-04T07:55:22.675Z,48.00
2017-11-04T07:56:29.489Z,48.20
2017-11-04T07:57:36.358Z,44.70
2017-11-04T07:58:43.140Z,43.80
2017-11-04T07:59:49.939Z,45.60
2017-11-04T08:00:56.716Z,46.20
2017-11-04T08:02:03.577Z,48.40
2017-11-04T08:03:10.369Z,43.60
2017-11-04T08:04:17.175Z,44.30
2017-11-04T08:05:23.940Z,42.00
2017-11-04T08:06:30.724Z,42.80
2017-11-04T08:07:37.541Z,47.60
2017-11-04T08:08:44.334Z,47.10
2017-11-04T08:09:51.396Z,46.40
2017-11-04T08:10:58.350Z,45.10
2017-11-04T08:12:05.154Z,48.90
2017-11-04T08:13:11.970Z,48.00
2017-11-04T08:14:19.034Z,48.40
2017-11-04T08:15:25.823Z,52.90
2017-11-04T08:16:32.629Z,48.90
2017-11-04T08:17:39.463Z,51.00
2017-11-04T08:18:46.265Z,51.10
2017-11-04T08:19:53.180Z,47.70
2017-11-04T08:20:59.990Z,53.50
2017-11-04T08:22:06.792Z,51.40
2017-11-04T08:23:13.574Z,47.60
2017-11-04T08:24:20.396Z,49.90
2017-11-04T08:25:27.224Z,52.00
2017-11-04T08:26:34.025Z,51.40
2017-11-04T08:27:40.848Z,52.20
2017-11-04T08:28:47.642Z,55.70
2017-11-04T08:29:54.438Z,46.20
2017-11-04T08:31:01.245Z,63.00
2017-11-04T08:32:08.057Z,56.70
2017-11-04T08:33:14.836Z,54.10
2017-11-04T08:34:21.637Z,56.20
2017-11-04T08:35:28.541Z,55.40
2017-11-04T08:36:35.328Z,55.60
2017-11-04T08:37:42.119Z,58.70
2017-11-04T08:38:48.936Z,54.50
2017-11-04T08:39:55.712Z,60.40
2017-11-04T08:41:02.532Z,53.80
2017-11-04T08:42:09.281Z,60.20
2017-11-04T08:43:16.102Z,51.90
2017-11-04T08:44:22.993Z,58.80
2017-11-04T08:45:29.834Z,59.10
2017-11-04T08:46:36.722Z,57.40
2017-11-04T08:47:43.617Z,59.70
2017-11-04T08:48:50.413Z,60.90
2017-11-04T08:49:57.168Z,59.10
2017-11-04T08:51:03.946Z,61.10
2017-11-04T08:52:10.823Z,55.60
2017-11-04T08:53:17.641Z,54.80
2017-11-04T08:54:24.437Z,59.30
2017-11-04T08:55:31.230Z,61.30
2017-11-04T08:56:38.060Z,52.20
2017-11-04T08:57:44.910Z,56.30
2017-11-04T08:58:51.633Z,60.50
2017-11-04T08:59:58.395Z,63.70
2017-11-04T09:01:05.125Z,68.80
2017-11-04T09:02:11.923Z,56.60
2017-11-04T09:03:18.740Z,57.90
2017-11-04T09:04:25.457Z,63.10
2017-11-04T09:05:32.229Z,59.10
2017-11-04T09:06:38.932Z,60.90
2017-11-04T09:07:45.720Z,62.40
2017-11-04T09:08:52.454Z,55.50
2017-11-04T09:09:59.145Z,63.60
2017-11-04T09:11:05.864Z,55.80
2017-11-04T09:12:12.625Z,53.20
2017-11-04T09:13:19.357Z,57.00
2017-11-04T09:14:26.092Z,55.70
2017-11-04T09:15:32.868Z,62.50
2017-11-04T09:16:39.632Z,59.70
2017-11-04T09:17:46.370Z,61.60
2017-11-04T09:18:53.161Z,60.00
2017-11-04T09:19:59.900Z,58.70
2017-11-04T09:21:06.700Z,59.40
2017-11-04T09:22:13.453Z,59.70
2017-11-04T09:23:20.180Z,63.50
2017-11-04T09:24:27.049Z,68.30
2017-11-04T09:25:33.756Z,60.80
2017-11-04T09:26:40.461Z,64.40
2017-11-04T09:27:47.195Z,65.50
2017-11-04T09:28:53.982Z,69.80
2017-11-04T09:30:00.709Z,61.60
2017-11-04T09:31:07.546Z,62.80
2017-11-04T09:32:14.337Z,58.40
2017-11-04T09:33:21.056Z,66.00
2017-11-04T09:34:27.841Z,65.70
2017-11-04T09:35:34.561Z,64.70
2017-11-04T09:36:41.293Z,59.90
2017-11-04T09:37:48.056Z,62.00
2017-11-04T09:38:54.756Z,69.00
2017-11-04T09:40:01.523Z,60.10
2017-11-04T09:41:08.329Z,61.10
2017-11-04T09:42:15.076Z,67.20
2017-11-04T09:43:21.809Z,63.70
2017-11-04T09:44:28.614Z,61.50
2017-11-04T09:45:35.378Z,64.90
2017-11-04T09:46:42.132Z,64.40
2017-11-04T09:47:48.869Z,62.40
2017-11-04T09:48:55.628Z,64.80
2017-11-04T09:50:02.378Z,59.50
2017-11-04T09:51:09.142Z,58.00
2017-11-04T09:52:15.985Z,56.40
2017-11-04T09:53:22.742Z,59.80
2017-11-04T09:54:29.486Z,58.40
2017-11-04T09:55:36.305Z,62.10
2017-11-04T09:56:43.164Z,59.00
2017-11-04T09:57:49.973Z,62.10
2017-11-04T09:58:56.737Z,61.40
2017-11-04T10:00:03.489Z,64.10
2017-11-04T10:01:10.249Z,61.50
2017-11-04T10:02:16.974Z,62.00
2017-11-04T10:03:23.793Z,60.70
2017-11-04T10:04:30.548Z,57.30
2017-11-04T10:05:37.373Z,58.70
2017-11-04T10:06:44.125Z,60.60
2017-11-04T10:07:50.851Z,68.60
2017-11-04T10:08:57.697Z,69.00
2017-11-04T10:10:04.454Z,63.80
2017-11-04T10:11:11.327Z,59.80
2017-11-04T10:12:18.121Z,60.70
2017-11-04T10:13:24.941Z,60.20
2017-11-04T10:14:31.838Z,60.60
2017-11-04T10:15:38.606Z,59.30
2017-11-04T10:16:45.422Z,62.80
2017-11-04T10:17:52.233Z,57.60
2017-11-04T10:18:58.964Z,63.20
2017-11-04T10:20:05.780Z,60.80
2017-11-04T10:21:12.546Z,54.10
2017-11-04T10:22:19.263Z,65.90
2017-11-04T10:23:26.024Z,60.30
2017-11-04T10:24:32.781Z,68.80
2017-11-04T10:25:39.632Z,56.00
2017-11-04T10:26:46.405Z,71.80
2017-11-04T10:27:53.114Z,64.20
2017-11-04T10:28:59.831Z,66.10
2017-11-04T10:30:06.585Z,56.00
2017-11-04T10:31:13.304Z,60.90
2017-11-04T10:32:20.181Z,89.50
2017-11-04T10:33:26.981Z,67.20
2017-11-04T10:34:33.721Z,66.50
2017-11-04T10:35:40.445Z,60.00
2017-11-04T10:36:47.253Z,58.10
2017-11-04T10:37:53.975Z,58.00
2017-11-04T10:39:00.778Z,57.20
2017-11-04T10:40:07.769Z,54.60
2017-11-04T10:41:14.504Z,57.50
2017-11-04T10:42:21.265Z,54.90
2017-11-04T10:43:28.095Z,55.40
2017-11-04T10:44:34.875Z,53.50
2017-11-04T10:45:42.234Z,52.40
2017-11-04T10:46:48.465Z,55.30
2017-11-04T10:47:55.285Z,53.40
2017-11-04T10:49:02.069Z,52.00
2017-11-04T10:50:09.125Z,55.70
2017-11-04T10:51:15.921Z,51.30
2017-11-04T10:52:22.815Z,48.00
2017-11-04T10:53:29.591Z,49.40
2017-11-04T10:54:36.364Z,52.80
2017-11-04T10:55:43.171Z,59.10
2017-11-04T10:56:49.997Z,49.00
2017-11-04T10:57:56.761Z,50.10
2017-11-04T10:59:03.577Z,45.60
2017-11-04T11:00:10.343Z,48.70
2017-11-04T11:01:17.548Z,52.20
2017-11-04T11:02:24.314Z,47.20
2017-11-04T11:03:31.106Z,50.00
2017-11-04T11:04:37.880Z,52.20
2017-11-04T11:05:44.641Z,54.90
2017-11-04T11:06:51.455Z,52.20
2017-11-04T11:07:58.442Z,53.70
2017-11-04T11:09:05.238Z,52.00
2017-11-04T11:10:12.042Z,53.10
2017-11-04T11:11:18.785Z,52.70
2017-11-04T11:12:25.613Z,48.10
2017-11-04T11:13:32.579Z,47.10
2017-11-04T11:14:39.386Z,48.80
2017-11-04T11:15:46.281Z,49.40
2017-11-04T11:16:53.109Z,54.00
2017-11-04T11:17:59.921Z,46.60
2017-11-04T11:19:06.725Z,52.90
2017-11-04T11:20:13.481Z,47.70
2017-11-04T11:21:20.262Z,50.20
2017-11-04T11:22:27.028Z,49.70
2017-11-04T11:23:33.837Z,48.20
2017-11-04T11:24:40.644Z,50.60
2017-11-04T11:25:47.429Z,51.50
2017-11-04T11:26:54.248Z,53.40
2017-11-04T11:28:01.021Z,53.80
2017-11-04T11:29:07.810Z,43.90
2017-11-04T11:30:14.632Z,45.90
2017-11-04T11:31:21.393Z,43.40
2017-11-04T11:32:28.181Z,51.40
2017-11-04T11:33:34.996Z,47.90
2017-11-04T11:34:41.786Z,48.60
2017-11-04T11:35:48.573Z,42.80
2017-11-04T11:36:55.376Z,41.50
2017-11-04T11:38:02.171Z,45.10
2017-11-04T11:39:08.945Z,50.40
2017-11-04T11:40:15.778Z,46.50
2017-11-04T11:41:22.585Z,48.60
2017-11-04T11:42:29.367Z,44.90
2017-11-04T11:43:36.148Z,43.40
2017-11-04T11:44:43.006Z,44.30
2017-11-04T11:45:49.894Z,46.30
2017-11-04T11:46:56.698Z,45.90
2017-11-04T11:48:03.450Z,48.70
2017-11-04T11:49:10.238Z,46.50
2017-11-04T11:50:16.985Z,44.40
2017-11-04T11:51:23.816Z,42.70
2017-11-04T11:52:30.696Z,52.70
2017-11-04T11:53:37.427Z,51.00
2017-11-04T11:54:44.221Z,44.00
2017-11-04T11:55:50.972Z,48.00
2017-11-04T11:56:57.712Z,40.30
2017-11-04T11:58:04.603Z,43.70
2017-11-04T11:59:11.544Z,45.50
2017-11-04T12:00:18.288Z,44.90
2017-11-04T12:01:25.074Z,40.70
2017-11-04T12:02:31.821Z,41.50
2017-11-04T12:03:38.570Z,42.90
2017-11-04T12:04:45.455Z,42.20
2017-11-04T12:05:52.225Z,42.60
2017-11-04T12:06:59.005Z,44.10
2017-11-04T12:08:05.784Z,41.10
2017-11-04T12:09:12.585Z,48.10
2017-11-04T12:10:19.498Z,39.90
2017-11-04T12:11:26.312Z,39.70
2017-11-04T12:12:33.076Z,45.50
2017-11-04T12:13:39.916Z,38.60
2017-11-04T12:14:46.710Z,36.40
2017-11-04T12:15:53.458Z,43.90
2017-11-04T12:17:00.197Z,34.30
2017-11-04T12:19:14.060Z,37.10
2017-11-04T12:20:20.809Z,38.20
2017-11-04T12:21:27.533Z,35.80
2017-11-04T12:22:34.352Z,35.20
2017-11-04T12:23:41.062Z,32.70
2017-11-04T12:24:47.825Z,37.00
2017-11-04T12:25:54.556Z,31.90
2017-11-04T12:27:01.323Z,32.90
2017-11-04T12:28:08.102Z,32.60
2017-11-04T12:29:14.841Z,36.20
2017-11-04T12:30:21.559Z,31.70
2017-11-04T12:31:28.398Z,34.70
2017-11-04T12:32:35.210Z,30.40
2017-11-04T12:33:42.069Z,31.30
2017-11-04T12:34:48.813Z,31.90
2017-11-04T12:35:55.663Z,34.50
2017-11-04T12:37:02.421Z,34.40
2017-11-04T12:38:09.133Z,32.60
2017-11-04T12:39:15.979Z,29.40
2017-11-04T12:40:22.702Z,33.10
2017-11-04T12:41:29.457Z,35.80
2017-11-04T12:42:36.165Z,32.90
2017-11-04T12:43:42.987Z,32.80
2017-11-04T12:44:49.752Z,31.40
2017-11-04T12:45:56.478Z,30.70
2017-11-04T12:47:03.434Z,32.90
2017-11-04T12:48:10.252Z,30.50
2017-11-04T12:49:17.062Z,30.30
2017-11-04T12:50:23.823Z,33.30
2017-11-04T12:51:30.816Z,28.60
2017-11-04T12:52:37.564Z,29.20
2017-11-04T12:53:44.324Z,28.60
2017-11-04T12:54:51.101Z,30.70
2017-11-04T12:55:58.099Z,31.20
2017-11-04T12:57:04.860Z,25.80
2017-11-04T12:58:11.614Z,27.50
2017-11-04T12:59:18.425Z,29.60
2017-11-04T13:00:25.177Z,28.50
2017-11-04T13:01:31.972Z,30.40
2017-11-04T13:02:38.772Z,30.80
2017-11-04T13:03:45.576Z,28.50
2017-11-04T13:04:52.449Z,23.70
2017-11-04T13:05:59.526Z,25.90
2017-11-04T13:07:06.488Z,26.90
2017-11-04T13:08:13.289Z,29.10
2017-11-04T13:09:20.208Z,24.40
2017-11-04T13:10:27.025Z,28.00
2017-11-04T13:11:33.816Z,27.70
2017-11-04T13:12:40.581Z,28.50
2017-11-04T13:13:47.402Z,27.40
2017-11-04T13:14:54.168Z,23.20
2017-11-04T13:16:01.009Z,23.80
2017-11-04T13:17:07.858Z,24.90
2017-11-04T13:18:14.676Z,23.60
2017-11-04T13:19:21.410Z,23.40
2017-11-04T13:20:28.192Z,25.00
2017-11-04T13:21:34.921Z,25.40
2017-11-04T13:22:41.673Z,26.30
2017-11-04T13:23:48.404Z,26.90
2017-11-04T13:24:55.238Z,24.30
2017-11-04T13:26:02.022Z,23.40
2017-11-04T13:27:08.781Z,26.60
2017-11-04T13:28:15.817Z,26.60
2017-11-04T13:29:23.068Z,23.10
2017-11-04T13:30:29.882Z,25.80
2017-11-04T13:31:36.622Z,23.60
2017-11-04T13:32:43.374Z,25.40
2017-11-04T13:33:50.182Z,27.20
2017-11-04T13:34:56.958Z,27.80
2017-11-04T13:36:03.728Z,28.80
2017-11-04T13:37:10.549Z,25.20
2017-11-04T13:38:17.285Z,26.50
2017-11-04T13:39:24.056Z,28.00
2017-11-04T13:40:30.938Z,25.70
2017-11-04T13:41:37.812Z,26.40
2017-11-04T13:42:44.913Z,25.20
2017-11-04T13:43:51.777Z,26.40
2017-11-04T13:44:58.538Z,24.50
2017-11-04T13:46:05.310Z,28.90
2017-11-04T13:47:12.138Z,29.40
2017-11-04T13:48:18.915Z,31.40
2017-11-04T13:49:25.665Z,25.40
2017-11-04T13:50:32.517Z,25.00
2017-11-04T13:51:39.324Z,31.20
2017-11-04T13:52:46.097Z,25.30
2017-11-04T13:53:52.964Z,28.20
2017-11-04T13:54:59.773Z,29.30
2017-11-04T13:56:06.522Z,26.60
2017-11-04T13:57:13.313Z,29.10
2017-11-04T13:58:20.090Z,22.50
2017-11-04T13:59:26.814Z,26.30
2017-11-04T14:00:33.613Z,24.50
2017-11-04T14:01:40.409Z,26.50
2017-11-04T14:02:47.124Z,26.40
2017-11-04T14:03:53.884Z,27.20
2017-11-04T14:05:00.764Z,30.40
2017-11-04T14:06:07.558Z,25.60
2017-11-04T14:07:14.401Z,25.60
2017-11-04T14:08:21.199Z,26.80
2017-11-04T14:09:27.949Z,27.20
2017-11-04T14:10:34.710Z,27.70
2017-11-04T14:11:41.517Z,26.20
2017-11-04T14:12:48.273Z,25.60
2017-11-04T14:13:54.998Z,34.70
2017-11-04T14:15:01.769Z,27.60
2017-11-04T14:16:08.576Z,24.40
2017-11-04T14:17:15.333Z,21.80
2017-11-04T14:18:22.165Z,27.90
2017-11-04T14:19:28.990Z,26.80
2017-11-04T14:20:35.749Z,25.20